Stations météo

réclame
Mon MeteoGroup
Mt. St.Vincent, France (7382): Température de l'air & dewpoint: 11.01.2018 01:00:00 - 17.01.2018 01:00:00 (CET)Mt. St.Vincent, France (7382): Vitesse du vent & gusts: 11.01.2018 01:00:00 - 17.01.2018 01:00:00 (CET)Mt. St.Vincent, France (7382): Direction du vent: 11.01.2018 01:00:00 - 17.01.2018 01:00:00 (CET)Mt. St.Vincent, France (7382): Ensoleillement: 11.01.2018 01:00:00 - 17.01.2018 01:00:00 (CET)Mt. St.Vincent, France (7382): Quantités de précipitations: 11.01.2018 01:00:00 - 17.01.2018 01:00:00 (CET)
Date & Time tt [°C] td [°C] ff [km/h] ff [knt] fx [km/h] fx [knt] dd sd [min] rr [mm]
17.01.2018 01:00:00 4,8 0,7 52 28 81 44 W 0 -
17.01.2018 00:00:00 4,8 1,5 50 27 81 44 W 0 0,0
16.01.2018 23:00:00 5,0 2,5 44 24 76 41 W 0 0,0
16.01.2018 22:00:00 4,1 2,4 41 22 85 46 W 0 1,0
16.01.2018 21:00:00 5,8 4,0 48 26 80 43 W 0 0,2
16.01.2018 20:00:00 6,0 3,8 55 30 93 50 W 0 0,0
16.01.2018 19:00:00 5,7 3,7 59 32 104 56 W 0 -
16.01.2018 18:00:00 6,6 5,1 41 22 80 43 W 0 0,8
16.01.2018 17:00:00 6,7 5,2 44 24 81 44 W 36 0,0
16.01.2018 16:00:00 7,0 5,6 44 24 74 40 W 0 1,0
16.01.2018 15:00:00 6,9 5,4 41 22 70 38 W 6 0,4
16.01.2018 14:00:00 7,6 4,4 48 26 85 46 W 0 0,0
16.01.2018 13:00:00 7,6 4,0 57 31 81 44 W 0 -
16.01.2018 12:00:00 7,3 4,1 61 33 93 50 W 18 0,2
16.01.2018 11:00:00 6,2 4,7 59 32 87 47 W 0 1,0
16.01.2018 10:00:00 6,6 3,9 59 32 83 45 WSW 6 0,2
16.01.2018 09:00:00 6,3 4,6 54 29 78 42 W 0 0,2
16.01.2018 08:00:00 6,3 4,5 54 29 80 43 WSW 0 0,0
16.01.2018 07:00:00 6,2 4,5 52 28 72 39 WSW 0 -
16.01.2018 06:00:00 5,9 4,2 46 25 87 47 WSW 0 0,6
16.01.2018 05:00:00 5,8 4,1 50 27 68 37 WSW 0 0,0
16.01.2018 04:00:00 5,3 3,6 44 24 76 41 WSW 0 1,0
16.01.2018 03:00:00 5,1 3,3 48 26 67 36 SW 0 1,0
16.01.2018 02:00:00 5,2 3,0 42 23 76 41 WSW 0 0,2
16.01.2018 01:00:00 5,2 2,2 48 26 72 39 WSW 0 -
16.01.2018 00:00:00 5,2 1,7 48 26 74 40 WSW 0 0,6
15.01.2018 23:00:00 4,6 1,3 34 18 55 30 SW 0 0,2
15.01.2018 22:00:00 4,3 1,0 39 21 55 30 SSW 0 0,4
15.01.2018 21:00:00 4,1 1,0 35 19 54 29 SSW 0 1,0
15.01.2018 20:00:00 4,0 0,7 39 21 65 35 SSW 0 0,4
15.01.2018 19:00:00 3,5 0,5 41 22 72 39 SSW 0 -
15.01.2018 18:00:00 4,1 0,2 41 22 65 35 WSW 0 0,6
15.01.2018 17:00:00 5,3 -0,8 34 18 55 30 SW 0 0,0
15.01.2018 16:00:00 5,1 -0,1 29 16 48 26 SW 0 0,2
15.01.2018 15:00:00 5,5 -0,6 26 14 44 24 SSW 0 0,0
15.01.2018 14:00:00 5,5 -0,8 28 15 44 24 SSW 0 0,0
15.01.2018 13:00:00 4,5 -0,7 28 15 42 23 SSW 6 -
15.01.2018 12:00:00 3,2 -0,8 29 16 39 21 SW 0 0,0
15.01.2018 11:00:00 3,6 -1,0 26 14 34 18 SW 0 0,0
15.01.2018 10:00:00 3,7 -0,9 16 9 21 11 WSW 18 0,0
15.01.2018 09:00:00 3,3 -1,1 13 7 18 10 WSW 12 0,0
15.01.2018 08:00:00 3,1 -1,5 13 7 16 9 WSW 0 0,0
15.01.2018 07:00:00 3,4 -1,2 13 7 18 10 SW 0 -
15.01.2018 06:00:00 3,5 -1,1 16 9 26 14 WSW 0 0,0
15.01.2018 05:00:00 3,6 -1,2 18 10 31 17 WSW 0 0,0
15.01.2018 04:00:00 4,1 -1,1 24 13 31 17 WSW 0 0,0
15.01.2018 03:00:00 4,1 -0,9 21 11 29 16 WSW 0 0,0
15.01.2018 02:00:00 4,1 -0,7 16 9 22 12 SW 0 0,0
15.01.2018 01:00:00 4,7 -0,9 15 8 21 11 SW 0 -
15.01.2018 00:00:00 4,9 -0,7 13 7 18 10 SSW 0 0,0
14.01.2018 23:00:00 5,3 -1,0 13 7 22 12 SSW 0 0,0
14.01.2018 22:00:00 4,6 -0,8 16 9 24 13 S 0 0,0
14.01.2018 21:00:00 4,5 -0,7 15 8 22 12 SSE 0 0,0
14.01.2018 20:00:00 4,2 -0,2 15 8 18 10 ESE 0 0,0
14.01.2018 19:00:00 4,0 -0,2 15 8 22 12 ESE 0 -
14.01.2018 18:00:00 3,4 -0,1 15 8 21 11 ESE 0 0,0
14.01.2018 17:00:00 3,6 0,3 13 7 18 10 E 0 0,0
14.01.2018 16:00:00 3,4 0,4 16 9 22 12 E 0 0,0
14.01.2018 15:00:00 4,4 0,0 16 9 22 12 ESE 0 0,0
14.01.2018 14:00:00 4,3 0,1 15 8 21 11 ESE 12 0,0
14.01.2018 13:00:00 3,1 0,5 15 8 21 11 ESE 0 -
14.01.2018 12:00:00 4,3 0,3 9 5 21 11 ESE 6 0,0
14.01.2018 11:00:00 4,4 -0,4 13 7 22 12 S 24 0,0
14.01.2018 10:00:00 4,2 0,2 13 7 24 13 S 12 0,0
14.01.2018 09:00:00 3,0 0,2 16 9 24 13 SSE 0 0,0
14.01.2018 08:00:00 2,5 0,1 16 9 26 14 SE 0 0,0
14.01.2018 07:00:00 2,9 -0,4 15 8 22 12 ESE 0 -
14.01.2018 06:00:00 3,1 -1,1 16 9 22 12 SE 0 0,0
14.01.2018 05:00:00 3,8 -2,2 16 9 26 14 SE 0 0,0
14.01.2018 04:00:00 3,2 -2,1 18 10 26 14 SE 0 0,0
14.01.2018 03:00:00 3,2 -2,3 18 10 29 16 SSE 0 0,0
14.01.2018 02:00:00 3,0 -1,4 21 11 29 16 SSE 0 0,0
14.01.2018 01:00:00 2,8 -0,8 21 11 26 14 SSE 0 -
14.01.2018 00:00:00 2,0 0,1 18 10 29 16 SE 0 0,0
13.01.2018 23:00:00 1,9 0,4 21 11 26 14 SE 0 0,0
13.01.2018 22:00:00 1,5 0,3 18 10 28 15 SE 0 0,0
13.01.2018 21:00:00 1,4 0,4 22 12 34 18 ESE 0 0,0
13.01.2018 20:00:00 1,5 0,5 24 13 31 17 ESE 0 0,0
13.01.2018 19:00:00 1,1 0,1 26 14 37 20 ESE 0 -
13.01.2018 18:00:00 0,8 -0,2 29 16 37 20 E 0 0,0
13.01.2018 17:00:00 0,9 -0,1 31 17 41 22 E 48 0,0
13.01.2018 16:00:00 1,1 0,1 35 19 42 23 E 60 0,0
13.01.2018 15:00:00 0,9 -0,1 34 18 44 24 E 18 0,0
13.01.2018 14:00:00 0,4 -0,7 34 18 41 22 E 0 0,0
13.01.2018 13:00:00 0,2 -0,9 31 17 39 21 E 6 -
13.01.2018 12:00:00 0,1 -1,2 24 13 29 16 E 0 0,0
13.01.2018 11:00:00 -0,4 -1,7 16 9 22 12 E 36 0,0
13.01.2018 10:00:00 0,0 -1,8 9 5 13 7 E 60 0,0
13.01.2018 09:00:00 0,8 -1,6 9 5 11 6 ESE 12 0,0
13.01.2018 08:00:00 0,4 -1,8 8 4 8 4 ESE 0 0,0
13.01.2018 07:00:00 0,4 -1,5 4 2 9 5 E 0 -
13.01.2018 06:00:00 0,5 -1,1 8 4 18 10 ENE 0 0,0
13.01.2018 05:00:00 0,9 -1,2 15 8 21 11 ENE 0 0,0
13.01.2018 04:00:00 1,5 -1,6 8 4 22 12 NE 0 0,0
13.01.2018 03:00:00 1,7 -0,7 11 6 22 12 NE 0 0,0
13.01.2018 02:00:00 1,9 0,4 18 10 22 12 ENE 0 0,0
13.01.2018 01:00:00 2,3 1,3 13 7 21 11 NE 0 -
13.01.2018 00:00:00 2,7 1,7 8 4 18 10 NNE 0 0,0
12.01.2018 23:00:00 3,0 1,8 8 4 18 10 N 0 0,0
12.01.2018 22:00:00 3,1 1,9 8 4 13 7 NNW 0 0,0
12.01.2018 21:00:00 3,1 1,6 8 4 15 8 NNW 0 0,0
12.01.2018 20:00:00 3,5 0,7 9 5 29 16 N 0 0,0
12.01.2018 19:00:00 3,1 1,1 16 9 24 13 NE 0 -
12.01.2018 18:00:00 3,2 1,6 13 7 21 11 ENE 0 0,0
12.01.2018 17:00:00 3,6 1,3 15 8 22 12 ENE 18 0,0
12.01.2018 16:00:00 4,2 1,9 15 8 22 12 ENE 24 0,0
12.01.2018 15:00:00 4,2 2,7 16 9 24 13 ENE 0 0,0
12.01.2018 14:00:00 5,6 2,8 8 4 18 10 N 30 0,0
12.01.2018 13:00:00 5,2 4,0 9 5 18 10 NNW 24 -
12.01.2018 12:00:00 3,9 2,9 11 6 26 14 NNE 0 0,0
12.01.2018 11:00:00 3,8 2,8 5 3 18 10 N 0 0,0
12.01.2018 10:00:00 3,6 2,6 8 4 22 12 N 30 0,0
12.01.2018 09:00:00 3,3 2,3 13 7 22 12 N 12 0,0
12.01.2018 08:00:00 3,1 1,9 9 5 21 11 N 0 0,0
12.01.2018 07:00:00 3,1 1,9 11 6 21 11 N 0 -
12.01.2018 06:00:00 3,1 1,9 9 5 24 13 N 0 0,0
12.01.2018 05:00:00 3,2 2,0 9 5 18 10 N 0 0,0
12.01.2018 04:00:00 3,4 2,2 8 4 18 10 N 0 0,0
12.01.2018 03:00:00 3,7 2,5 8 4 13 7 N 0 0,0
12.01.2018 02:00:00 3,8 2,6 8 4 13 7 N 0 0,0
12.01.2018 01:00:00 4,0 2,8 5 3 11 6 N 0 -
12.01.2018 00:00:00 4,0 2,8 5 3 11 6 WNW 0 0,6
11.01.2018 23:00:00 3,9 2,7 9 5 16 9 N 0 1,0
11.01.2018 22:00:00 4,0 2,8 8 4 18 10 NNW 0 0,0
11.01.2018 21:00:00 4,1 2,9 4 2 18 10 NW 0 0,2
11.01.2018 20:00:00 4,1 2,8 5 3 16 9 NW 0 0,0
11.01.2018 19:00:00 4,3 3,0 9 5 21 11 N 0 -
11.01.2018 18:00:00 4,6 2,8 5 3 15 8 N 0 0,0
11.01.2018 17:00:00 5,2 3,0 0 0 15 8 N 36 0,0
11.01.2018 16:00:00 5,3 3,5 8 4 16 9 WNW 24 0,0
11.01.2018 15:00:00 5,3 3,5 11 6 22 12 WNW 0 0,0
11.01.2018 14:00:00 5,0 2,9 15 8 26 14 W 18 0,0
11.01.2018 13:00:00 5,0 2,2 18 10 26 14 W 24 -
11.01.2018 12:00:00 4,7 2,1 16 9 21 11 W 12 0,0
11.01.2018 11:00:00 4,8 1,8 11 6 16 9 WNW 12 0,0
11.01.2018 10:00:00 4,6 0,9 8 4 15 8 WNW 0 0,0
11.01.2018 09:00:00 4,2 0,5 13 7 18 10 W 0 0,0
11.01.2018 08:00:00 4,0 0,3 9 5 13 7 W 0 0,0
11.01.2018 07:00:00 4,0 0,3 9 5 16 9 W 0 -
11.01.2018 06:00:00 3,9 0,2 11 6 22 12 W 0 0,0
11.01.2018 05:00:00 4,5 -0,3 9 5 15 8 SSW 0 0,0
11.01.2018 04:00:00 4,8 0,0 9 5 16 9 SW 0 0,0
11.01.2018 03:00:00 4,3 0,4 13 7 22 12 WSW 0 0,0
11.01.2018 02:00:00 4,3 0,8 16 9 24 13 WSW 0 0,0
11.01.2018 01:00:00 4,6 0,7 18 10 28 15 WSW 0 -

tt = Température de l'air
td = dewpoint
ff = Vitesse du vent
fx = gusts
dd = Direction du vent
sd = Ensoleillement
rr = Quantités de précipitations

stations d'obs. à proximité